createdAt,value
2022-08-17T00:00:42.715Z,100.00
2022-08-17T00:03:10.515Z,100.00
2022-08-17T00:05:36.812Z,100.00
2022-08-17T00:08:03.075Z,100.00
2022-08-17T00:10:29.377Z,100.00
2022-08-17T00:12:58.647Z,100.00
2022-08-17T00:15:24.866Z,100.00
2022-08-17T00:17:51.130Z,100.00
2022-08-17T00:20:17.538Z,100.00
2022-08-17T00:22:46.274Z,100.00
2022-08-17T00:25:12.503Z,100.00
2022-08-17T00:27:38.772Z,100.00
2022-08-17T00:30:04.987Z,100.00
2022-08-17T00:33:15.778Z,100.00
2022-08-17T00:35:17.547Z,100.00
2022-08-17T00:37:43.775Z,100.00
2022-08-17T00:40:10.087Z,100.00
2022-08-17T00:42:36.438Z,100.00
2022-08-17T00:45:02.662Z,100.00
2022-08-17T00:47:28.907Z,100.00
2022-08-17T00:49:55.257Z,100.00
2022-08-17T00:52:21.545Z,100.00
2022-08-17T00:54:47.812Z,100.00
2022-08-17T00:57:14.102Z,100.00
2022-08-17T00:59:40.346Z,100.00
2022-08-17T01:02:06.602Z,100.00
2022-08-17T01:04:32.835Z,100.00
2022-08-17T01:06:59.063Z,100.00
2022-08-17T01:09:25.308Z,100.00
2022-08-17T01:11:51.578Z,100.00
2022-08-17T01:14:17.916Z,100.00
2022-08-17T01:16:44.180Z,100.00
2022-08-17T01:19:10.497Z,100.00
2022-08-17T01:21:36.751Z,100.00
2022-08-17T01:24:02.955Z,100.00
2022-08-17T01:26:29.255Z,100.00
2022-08-17T01:28:56.003Z,100.00
2022-08-17T01:31:22.305Z,100.00
2022-08-17T01:33:48.574Z,100.00
2022-08-17T01:36:14.881Z,100.00
2022-08-17T01:38:41.159Z,100.00
2022-08-17T01:41:07.389Z,100.00
2022-08-17T01:43:33.640Z,100.00
2022-08-17T01:46:03.138Z,100.00
2022-08-17T01:48:30.221Z,100.00
2022-08-17T01:50:56.452Z,100.00
2022-08-17T01:53:22.713Z,100.00
2022-08-17T01:55:48.953Z,100.00
2022-08-17T01:58:15.203Z,100.00
2022-08-17T02:00:59.714Z,100.00
2022-08-17T02:03:27.653Z,100.00
2022-08-17T02:05:53.908Z,100.00
2022-08-17T02:08:20.420Z,100.00
2022-08-17T02:10:58.798Z,100.00
2022-08-17T02:13:27.281Z,100.00
2022-08-17T02:15:53.534Z,100.00
2022-08-17T02:18:19.784Z,100.00
2022-08-17T02:20:46.123Z,100.00
2022-08-17T02:23:12.374Z,100.00
2022-08-17T02:25:38.594Z,100.00
2022-08-17T02:28:04.859Z,100.00
2022-08-17T02:31:00.938Z,100.00
2022-08-17T02:33:17.399Z,100.00
2022-08-17T02:35:46.558Z,100.00
2022-08-17T02:38:12.802Z,100.00
2022-08-17T02:40:39.058Z,100.00
2022-08-17T02:43:05.325Z,100.00
2022-08-17T02:45:31.647Z,100.00
2022-08-17T02:47:57.917Z,100.00
2022-08-17T02:50:24.131Z,100.00
2022-08-17T02:53:01.828Z,100.00
2022-08-17T02:55:28.867Z,100.00
2022-08-17T02:57:55.113Z,100.00
2022-08-17T03:00:21.347Z,100.00
2022-08-17T03:02:47.591Z,100.00
2022-08-17T03:05:13.818Z,100.00
2022-08-17T03:07:40.055Z,100.00
2022-08-17T03:10:06.297Z,100.00
2022-08-17T03:12:32.557Z,100.00
2022-08-17T03:14:58.780Z,100.00
2022-08-17T03:17:25.134Z,100.00
2022-08-17T03:19:51.441Z,100.00
2022-08-17T03:22:36.187Z,100.00
2022-08-17T03:25:03.996Z,100.00
2022-08-17T03:27:36.775Z,100.00
2022-08-17T03:30:05.734Z,100.00
2022-08-17T03:32:31.968Z,100.00
2022-08-17T03:34:58.208Z,100.00
2022-08-17T03:37:24.511Z,100.00
2022-08-17T03:39:50.801Z,100.00
2022-08-17T03:42:32.331Z,100.00
2022-08-17T03:44:59.101Z,100.00
2022-08-17T03:47:25.505Z,100.00
2022-08-17T03:49:51.726Z,100.00
2022-08-17T03:52:17.987Z,100.00
2022-08-17T03:54:44.218Z,100.00
2022-08-17T03:57:10.486Z,100.00
2022-08-17T03:59:36.725Z,100.00
2022-08-17T04:02:02.967Z,100.00
2022-08-17T04:04:29.195Z,100.00
2022-08-17T04:06:55.429Z,100.00
2022-08-17T04:09:21.640Z,100.00
2022-08-17T04:11:47.955Z,100.00
2022-08-17T04:14:14.314Z,100.00
2022-08-17T04:16:40.566Z,100.00
2022-08-17T04:19:06.787Z,100.00
2022-08-17T04:21:33.232Z,100.00
2022-08-17T04:23:59.461Z,100.00
2022-08-17T04:26:52.526Z,100.00
2022-08-17T04:29:12.060Z,100.00
2022-08-17T04:31:38.312Z,100.00
2022-08-17T04:34:04.549Z,100.00
2022-08-17T04:36:30.925Z,100.00
2022-08-17T04:38:58.329Z,100.00
2022-08-17T04:41:24.648Z,100.00
2022-08-17T04:43:50.895Z,100.00
2022-08-17T04:46:17.183Z,100.00
2022-08-17T04:48:43.552Z,100.00
2022-08-17T04:51:10.283Z,100.00
2022-08-17T04:53:36.715Z,100.00
2022-08-17T04:56:03.031Z,100.00
2022-08-17T04:58:29.274Z,100.00
2022-08-17T05:00:55.591Z,100.00
2022-08-17T05:03:21.835Z,100.00
2022-08-17T05:05:48.100Z,100.00
2022-08-17T05:08:14.714Z,100.00
2022-08-17T05:10:45.534Z,100.00
2022-08-17T05:13:12.071Z,100.00
2022-08-17T05:15:38.326Z,100.00
2022-08-17T05:18:11.246Z,100.00
2022-08-17T05:20:37.700Z,100.00
2022-08-17T05:23:03.951Z,100.00
2022-08-17T05:25:30.517Z,100.00
2022-08-17T05:28:00.683Z,100.00
2022-08-17T05:30:28.469Z,100.00
2022-08-17T05:32:55.249Z,100.00
2022-08-17T05:35:21.692Z,100.00
2022-08-17T05:37:48.119Z,100.00
2022-08-17T05:40:14.436Z,100.00
2022-08-17T05:42:41.036Z,100.00
2022-08-17T05:45:07.346Z,100.00
2022-08-17T05:47:33.814Z,100.00
2022-08-17T05:50:00.332Z,100.00
2022-08-17T05:52:28.622Z,100.00
2022-08-17T05:54:55.052Z,100.00
2022-08-17T05:57:22.218Z,100.00
2022-08-17T05:59:49.265Z,100.00
2022-08-17T06:02:15.594Z,100.00
2022-08-17T06:04:41.931Z,100.00
2022-08-17T06:07:08.292Z,100.00
2022-08-17T06:09:34.574Z,100.00
2022-08-17T06:12:00.936Z,100.00
2022-08-17T06:14:28.763Z,100.00
2022-08-17T06:16:55.114Z,100.00
2022-08-17T06:19:21.417Z,100.00
2022-08-17T06:21:47.881Z,100.00
2022-08-17T06:24:14.221Z,100.00
2022-08-17T06:26:43.282Z,100.00
2022-08-17T06:29:09.794Z,100.00
2022-08-17T06:31:45.273Z,100.00
2022-08-17T06:34:11.480Z,100.00
2022-08-17T06:36:37.731Z,100.00
2022-08-17T06:39:03.979Z,100.00
2022-08-17T06:41:30.248Z,100.00
2022-08-17T06:43:56.531Z,100.00
2022-08-17T06:46:22.818Z,100.00
2022-08-17T06:48:49.044Z,100.00
2022-08-17T06:51:15.368Z,100.00
2022-08-17T06:53:41.671Z,100.00
2022-08-17T06:56:07.951Z,100.00
2022-08-17T06:58:34.172Z,100.00
2022-08-17T07:01:00.450Z,100.00
2022-08-17T07:03:26.713Z,100.00
2022-08-17T07:05:52.966Z,100.00
2022-08-17T07:08:20.654Z,100.00
2022-08-17T07:10:46.908Z,100.00
2022-08-17T07:13:13.131Z,100.00
2022-08-17T07:15:39.651Z,100.00
2022-08-17T07:18:05.872Z,100.00
2022-08-17T07:20:32.384Z,100.00
2022-08-17T07:23:00.433Z,100.00
2022-08-17T07:25:26.968Z,100.00
2022-08-17T07:27:53.196Z,100.00
2022-08-17T07:30:19.648Z,100.00
2022-08-17T07:32:46.069Z,100.00
2022-08-17T07:35:12.524Z,100.00
2022-08-17T07:37:41.749Z,100.00
2022-08-17T07:40:15.442Z,100.00
2022-08-17T07:42:46.720Z,100.00
2022-08-17T07:45:13.321Z,100.00
2022-08-17T07:47:39.567Z,100.00
2022-08-17T07:50:05.854Z,100.00
2022-08-17T07:52:51.185Z,100.00
2022-08-17T07:55:18.286Z,100.00
2022-08-17T07:57:44.615Z,100.00
2022-08-17T08:00:16.411Z,100.00
2022-08-17T08:02:42.849Z,100.00
2022-08-17T08:05:09.142Z,100.00
2022-08-17T08:07:36.413Z,100.00
2022-08-17T08:10:02.731Z,100.00
2022-08-17T08:12:33.673Z,100.00
2022-08-17T08:15:00.201Z,99.43
2022-08-17T08:17:26.463Z,97.69
2022-08-17T08:19:52.751Z,92.68
2022-08-17T08:22:19.101Z,91.19
2022-08-17T08:24:45.439Z,94.51
2022-08-17T08:27:11.657Z,88.34
2022-08-17T08:29:37.921Z,89.39
2022-08-17T08:32:04.158Z,85.22
2022-08-17T08:34:58.708Z,82.57
2022-08-17T08:37:24.970Z,81.41
2022-08-17T08:39:53.995Z,74.64
2022-08-17T08:42:20.474Z,71.31
2022-08-17T08:45:01.278Z,71.35
2022-08-17T08:47:31.489Z,72.16
2022-08-17T08:50:04.402Z,72.20
2022-08-17T08:52:31.201Z,72.39
2022-08-17T08:54:57.519Z,72.93
2022-08-17T08:57:28.017Z,74.58
2022-08-17T08:59:58.399Z,70.01
2022-08-17T09:02:24.804Z,71.09
2022-08-17T09:05:13.440Z,71.57
2022-08-17T09:07:37.427Z,69.15
2022-08-17T09:10:03.732Z,69.16
2022-08-17T09:12:30.025Z,66.34
2022-08-17T09:14:56.305Z,69.79
2022-08-17T09:17:22.543Z,64.58
2022-08-17T09:19:48.792Z,64.97
2022-08-17T09:22:15.021Z,64.55
2022-08-17T09:24:41.274Z,67.58
2022-08-17T09:27:07.557Z,64.94
2022-08-17T09:29:33.804Z,66.25
2022-08-17T09:32:00.129Z,67.44
2022-08-17T09:34:29.601Z,63.92
2022-08-17T09:36:59.555Z,63.76
2022-08-17T09:39:26.256Z,63.04
2022-08-17T09:41:52.732Z,61.99
2022-08-17T09:44:23.079Z,61.90
2022-08-17T09:46:50.075Z,61.19
2022-08-17T09:49:16.382Z,62.10
2022-08-17T09:51:42.651Z,61.69
2022-08-17T09:54:37.097Z,62.63
2022-08-17T09:57:18.166Z,61.56
2022-08-17T09:59:41.876Z,55.95
2022-08-17T10:02:08.219Z,57.24
2022-08-17T10:04:39.492Z,59.07
2022-08-17T10:07:05.762Z,55.59
2022-08-17T10:09:32.021Z,56.44
2022-08-17T10:11:58.861Z,56.82
2022-08-17T10:14:37.640Z,55.26
2022-08-17T10:17:10.085Z,54.35
2022-08-17T10:19:36.394Z,53.69
2022-08-17T10:22:32.791Z,53.42
2022-08-17T10:25:01.950Z,52.90
2022-08-17T10:27:35.144Z,50.52
2022-08-17T10:30:01.488Z,48.82
2022-08-17T10:32:28.433Z,47.12
2022-08-17T10:34:54.851Z,45.84
2022-08-17T10:37:21.193Z,45.31
2022-08-17T10:39:52.139Z,45.30
2022-08-17T10:42:30.406Z,47.65
2022-08-17T10:44:59.228Z,47.81
2022-08-17T10:47:25.674Z,45.43
2022-08-17T10:49:51.960Z,44.63
2022-08-17T10:52:18.254Z,46.08
2022-08-17T10:54:44.475Z,47.10
2022-08-17T10:57:10.959Z,46.48
2022-08-17T10:59:37.185Z,45.17
2022-08-17T11:02:03.435Z,44.64
2022-08-17T11:04:29.839Z,44.49
2022-08-17T11:06:56.188Z,45.45
2022-08-17T11:09:22.443Z,45.75
2022-08-17T11:11:48.706Z,46.24
2022-08-17T11:14:14.969Z,45.48
2022-08-17T11:16:41.200Z,43.61
2022-08-17T11:19:07.443Z,43.26
2022-08-17T11:21:33.669Z,43.31
2022-08-17T11:23:59.902Z,42.67
2022-08-17T11:26:26.207Z,42.43
2022-08-17T11:28:53.040Z,41.98
2022-08-17T11:31:19.448Z,43.38
2022-08-17T11:34:04.317Z,43.88
2022-08-17T11:36:30.549Z,43.68
2022-08-17T11:38:56.810Z,44.42
2022-08-17T11:41:23.604Z,42.89
2022-08-17T11:43:49.890Z,43.76
2022-08-17T11:46:16.252Z,44.83
2022-08-17T11:48:42.475Z,43.25
2022-08-17T11:51:08.693Z,45.88
2022-08-17T11:53:35.012Z,41.77
2022-08-17T11:56:01.320Z,43.56
2022-08-17T11:58:27.561Z,42.73
2022-08-17T12:00:53.784Z,43.17
2022-08-17T12:03:20.054Z,43.33
2022-08-17T12:05:46.449Z,41.01
2022-08-17T12:08:12.781Z,41.42
2022-08-17T12:10:38.990Z,41.61
2022-08-17T12:13:05.233Z,40.67
2022-08-17T12:15:31.453Z,41.08
2022-08-17T12:17:58.150Z,40.57
2022-08-17T12:20:24.537Z,42.92
2022-08-17T12:22:50.859Z,41.77
2022-08-17T12:25:17.255Z,42.38
2022-08-17T12:28:04.239Z,42.47
2022-08-17T12:30:29.751Z,41.66
2022-08-17T12:32:56.169Z,41.99
2022-08-17T12:35:22.513Z,41.78
2022-08-17T12:37:48.827Z,39.45
2022-08-17T12:40:15.147Z,41.74
2022-08-17T12:42:41.562Z,40.19
2022-08-17T12:45:07.812Z,48.62
2022-08-17T12:47:34.045Z,46.40
2022-08-17T12:50:03.186Z,43.80
2022-08-17T12:52:29.454Z,42.96
2022-08-17T12:54:55.710Z,42.62
2022-08-17T12:57:21.954Z,42.92
2022-08-17T12:59:48.199Z,43.13
2022-08-17T13:02:15.011Z,43.21
2022-08-17T13:04:41.254Z,41.19
2022-08-17T13:07:07.516Z,41.56
2022-08-17T13:09:40.472Z,42.90
2022-08-17T13:12:07.502Z,41.58
2022-08-17T13:14:34.238Z,42.64
2022-08-17T13:17:00.575Z,40.51
2022-08-17T13:19:39.829Z,40.98
2022-08-17T13:22:07.610Z,44.00
2022-08-17T13:24:38.282Z,46.02
2022-08-17T13:27:07.976Z,43.67
2022-08-17T13:29:34.724Z,42.08
2022-08-17T13:32:04.224Z,43.78
2022-08-17T13:34:31.334Z,42.10
2022-08-17T13:36:59.557Z,41.67
2022-08-17T13:39:26.137Z,40.38
2022-08-17T13:41:52.551Z,39.94
2022-08-17T13:44:18.780Z,39.60
2022-08-17T13:46:45.139Z,39.33
2022-08-17T13:49:18.642Z,40.01
2022-08-17T13:51:44.980Z,40.03
2022-08-17T13:54:11.323Z,37.82
2022-08-17T13:56:39.569Z,41.11
2022-08-17T13:59:06.056Z,38.39
2022-08-17T14:01:32.432Z,39.47
2022-08-17T14:03:58.751Z,39.54
2022-08-17T14:06:52.042Z,39.46
2022-08-17T14:09:11.281Z,39.96
2022-08-17T14:11:37.531Z,38.70
2022-08-17T14:14:03.800Z,37.78
2022-08-17T14:16:30.107Z,38.51
2022-08-17T14:18:57.486Z,37.07
2022-08-17T14:21:23.783Z,38.07
2022-08-17T14:23:54.381Z,38.63
2022-08-17T14:26:21.334Z,38.15
2022-08-17T14:28:49.457Z,43.06
2022-08-17T14:31:22.906Z,41.42
2022-08-17T14:33:49.178Z,41.75
2022-08-17T14:36:15.472Z,41.42
2022-08-17T14:38:41.724Z,40.69
2022-08-17T14:41:08.126Z,40.24
2022-08-17T14:43:34.403Z,40.77
2022-08-17T14:46:00.684Z,39.49
2022-08-17T14:48:26.956Z,40.46
2022-08-17T14:50:53.249Z,39.53
2022-08-17T14:53:19.619Z,39.50
2022-08-17T14:55:47.119Z,39.51
2022-08-17T14:58:14.943Z,40.43
2022-08-17T15:00:41.173Z,39.29
2022-08-17T15:03:07.411Z,39.53
2022-08-17T15:05:33.712Z,39.87
2022-08-17T15:08:00.285Z,39.82
2022-08-17T15:10:26.572Z,39.57
2022-08-17T15:12:52.841Z,40.49
2022-08-17T15:15:19.167Z,39.47
2022-08-17T15:17:46.128Z,39.00
2022-08-17T15:20:21.117Z,38.94
2022-08-17T15:22:47.372Z,39.44
2022-08-17T15:25:13.606Z,39.86
2022-08-17T15:27:39.871Z,39.72
2022-08-17T15:30:07.325Z,41.61
2022-08-17T15:32:33.780Z,42.15
2022-08-17T15:35:00.114Z,41.93
2022-08-17T15:37:26.384Z,40.40
2022-08-17T15:39:52.688Z,40.22
2022-08-17T15:42:18.960Z,39.27
2022-08-17T15:44:45.167Z,39.70
2022-08-17T15:47:11.417Z,39.45
2022-08-17T15:49:38.715Z,39.25
2022-08-17T15:52:04.942Z,39.98
2022-08-17T15:54:31.655Z,38.67
2022-08-17T15:57:01.019Z,38.39
2022-08-17T15:59:27.238Z,38.34
2022-08-17T16:03:15.105Z,38.49
2022-08-17T16:04:41.441Z,38.89
2022-08-17T16:07:10.478Z,37.96
2022-08-17T16:09:36.739Z,37.09
2022-08-17T16:12:02.993Z,37.38
2022-08-17T16:14:34.008Z,37.88
2022-08-17T16:17:01.450Z,37.63
2022-08-17T16:19:27.776Z,38.45
2022-08-17T16:21:54.023Z,38.87
2022-08-17T16:24:20.335Z,39.74
2022-08-17T16:26:46.625Z,40.25
2022-08-17T16:29:12.845Z,41.05
2022-08-17T16:31:39.171Z,41.42
2022-08-17T16:34:16.776Z,39.56
2022-08-17T16:36:54.658Z,39.11
2022-08-17T16:39:22.078Z,39.40
2022-08-17T16:41:48.645Z,40.14
2022-08-17T16:44:15.496Z,40.51
2022-08-17T16:46:45.983Z,40.75
2022-08-17T16:49:12.410Z,40.28
2022-08-17T16:51:55.866Z,42.09
2022-08-17T16:54:22.121Z,41.70
2022-08-17T16:56:48.363Z,42.03
2022-08-17T16:59:30.229Z,41.64
2022-08-17T17:01:58.040Z,42.68
2022-08-17T17:04:24.390Z,41.40
2022-08-17T17:06:50.758Z,41.88
2022-08-17T17:09:16.961Z,41.64
2022-08-17T17:11:43.230Z,41.70
2022-08-17T17:14:09.482Z,41.95
2022-08-17T17:16:35.840Z,41.46
2022-08-17T17:19:02.127Z,41.77
2022-08-17T17:21:28.561Z,41.86
2022-08-17T17:23:54.785Z,42.63
2022-08-17T17:26:21.076Z,42.45
2022-08-17T17:28:47.306Z,42.23
2022-08-17T17:31:13.549Z,42.56
2022-08-17T17:33:39.777Z,42.58
2022-08-17T17:36:06.079Z,43.00
2022-08-17T17:38:32.307Z,43.23
2022-08-17T17:41:02.496Z,43.28
2022-08-17T17:43:39.022Z,43.45
2022-08-17T17:46:28.693Z,43.65
2022-08-17T17:48:52.965Z,44.65
2022-08-17T17:52:05.285Z,45.14
2022-08-17T17:54:05.470Z,45.34
2022-08-17T17:56:44.157Z,46.91
2022-08-17T17:59:12.614Z,47.82
2022-08-17T18:01:39.334Z,47.38
2022-08-17T18:04:17.017Z,47.56
2022-08-17T18:06:47.049Z,48.34
2022-08-17T18:09:15.477Z,49.01
2022-08-17T18:11:45.749Z,49.64
2022-08-17T18:14:17.565Z,50.21
2022-08-17T18:16:43.919Z,57.31
2022-08-17T18:19:11.497Z,64.21
2022-08-17T18:21:39.119Z,64.84
2022-08-17T18:24:06.578Z,64.22
2022-08-17T18:26:34.443Z,65.65
2022-08-17T18:29:00.980Z,68.08
2022-08-17T18:31:27.377Z,67.98
2022-08-17T18:33:53.607Z,65.97
2022-08-17T18:36:19.881Z,69.38
2022-08-17T18:38:46.595Z,69.79
2022-08-17T18:41:13.028Z,70.16
2022-08-17T18:43:52.770Z,64.51
2022-08-17T18:46:28.298Z,64.59
2022-08-17T18:48:55.972Z,68.10
2022-08-17T18:51:39.701Z,68.60
2022-08-17T18:54:08.044Z,68.54
2022-08-17T18:56:34.539Z,63.99
2022-08-17T18:59:00.811Z,65.43
2022-08-17T19:01:41.941Z,67.94
2022-08-17T19:04:13.600Z,66.97
2022-08-17T19:06:39.920Z,65.17
2022-08-17T19:09:06.356Z,66.93
2022-08-17T19:11:32.611Z,68.08
2022-08-17T19:13:58.918Z,67.73
2022-08-17T19:16:25.162Z,68.95
2022-08-17T19:18:51.435Z,67.01
2022-08-17T19:21:18.067Z,68.01
2022-08-17T19:23:53.706Z,79.33
2022-08-17T19:26:55.381Z,83.13
2022-08-17T19:29:06.872Z,76.97
2022-08-17T19:31:33.151Z,74.36
2022-08-17T19:33:59.484Z,76.45
2022-08-17T19:36:25.848Z,82.30
2022-08-17T19:38:52.101Z,77.95
2022-08-17T19:41:18.374Z,79.88
2022-08-17T19:43:44.863Z,81.94
2022-08-17T19:46:11.173Z,81.70
2022-08-17T19:48:37.403Z,89.30
2022-08-17T19:51:03.658Z,86.42
2022-08-17T19:53:42.000Z,83.80
2022-08-17T19:56:16.189Z,81.08
2022-08-17T19:58:42.424Z,83.31
2022-08-17T20:01:11.074Z,82.35
2022-08-17T20:03:37.385Z,84.02
2022-08-17T20:06:18.832Z,86.85
2022-08-17T20:08:45.153Z,84.58
2022-08-17T20:11:11.410Z,83.29
2022-08-17T20:13:37.762Z,84.24
2022-08-17T20:16:04.018Z,83.85
2022-08-17T20:18:30.259Z,86.90
2022-08-17T20:20:56.586Z,88.96
2022-08-17T20:23:22.815Z,86.10
2022-08-17T20:25:49.088Z,91.40
2022-08-17T20:28:15.300Z,88.03
2022-08-17T20:30:42.315Z,89.57
2022-08-17T20:33:08.525Z,92.30
2022-08-17T20:35:39.435Z,92.25
2022-08-17T20:38:05.631Z,90.88
2022-08-17T20:40:31.887Z,89.53
2022-08-17T20:42:58.107Z,91.68
2022-08-17T20:45:24.449Z,92.64
2022-08-17T20:48:15.994Z,91.97
2022-08-17T20:50:36.967Z,93.16
2022-08-17T20:53:03.213Z,97.74
2022-08-17T20:55:29.457Z,95.73
2022-08-17T20:57:55.683Z,92.97
2022-08-17T21:00:21.911Z,93.34
2022-08-17T21:02:48.140Z,94.23
2022-08-17T21:05:14.397Z,92.98
2022-08-17T21:07:42.710Z,91.26
2022-08-17T21:10:09.998Z,91.35
2022-08-17T21:12:36.392Z,92.82
2022-08-17T21:15:02.657Z,93.93
2022-08-17T21:17:28.957Z,93.70
2022-08-17T21:20:10.447Z,91.68
2022-08-17T21:22:37.507Z,93.22
2022-08-17T21:25:03.777Z,94.19
2022-08-17T21:27:30.067Z,96.41
2022-08-17T21:29:56.516Z,95.04
2022-08-17T21:32:24.423Z,95.99
2022-08-17T21:34:51.604Z,96.39
2022-08-17T21:37:17.871Z,97.37
2022-08-17T21:39:44.137Z,97.57
2022-08-17T21:42:10.411Z,97.98
2022-08-17T21:44:36.713Z,98.79
2022-08-17T21:47:02.979Z,98.94
2022-08-17T21:49:29.221Z,98.48
2022-08-17T21:52:04.004Z,99.13
2022-08-17T21:54:30.263Z,100.00
2022-08-17T21:56:56.554Z,100.00
2022-08-17T21:59:22.920Z,100.00
2022-08-17T22:01:50.707Z,100.00
2022-08-17T22:04:17.017Z,100.00
2022-08-17T22:06:43.305Z,100.00
2022-08-17T22:09:23.726Z,100.00
2022-08-17T22:11:49.979Z,100.00
2022-08-17T22:14:16.239Z,100.00
2022-08-17T22:16:43.748Z,100.00
2022-08-17T22:19:10.020Z,100.00
2022-08-17T22:21:36.255Z,100.00
2022-08-17T22:24:02.499Z,100.00
2022-08-17T22:26:28.724Z,100.00
2022-08-17T22:28:54.960Z,100.00
2022-08-17T22:31:21.215Z,100.00
2022-08-17T22:33:47.579Z,100.00
2022-08-17T22:36:13.808Z,100.00
2022-08-17T22:38:40.587Z,100.00
2022-08-17T22:41:06.925Z,100.00
2022-08-17T22:43:34.976Z,100.00
2022-08-17T22:46:01.306Z,100.00
2022-08-17T22:48:27.708Z,100.00
2022-08-17T22:50:54.071Z,100.00
2022-08-17T22:53:20.319Z,100.00
2022-08-17T22:55:46.602Z,100.00
2022-08-17T22:58:12.854Z,100.00
2022-08-17T23:00:39.121Z,100.00
2022-08-17T23:03:05.413Z,100.00
2022-08-17T23:05:31.717Z,100.00
2022-08-17T23:07:57.957Z,100.00
2022-08-17T23:10:24.209Z,100.00
2022-08-17T23:12:50.447Z,100.00
2022-08-17T23:15:16.670Z,100.00
2022-08-17T23:17:42.890Z,100.00
2022-08-17T23:20:11.575Z,100.00
2022-08-17T23:22:37.781Z,100.00
2022-08-17T23:25:18.891Z,100.00
2022-08-17T23:27:46.854Z,100.00
2022-08-17T23:30:13.158Z,100.00
2022-08-17T23:32:39.396Z,100.00
2022-08-17T23:35:19.735Z,100.00
2022-08-17T23:38:05.634Z,100.00
2022-08-17T23:40:31.918Z,100.00
2022-08-17T23:42:58.220Z,100.00
2022-08-17T23:45:24.882Z,100.00
2022-08-17T23:47:51.423Z,100.00
2022-08-17T23:50:17.879Z,100.00
2022-08-17T23:52:44.821Z,100.00
2022-08-17T23:55:11.082Z,100.00
2022-08-17T23:57:37.309Z,100.00
